sensor_id;sensor_type;location;lat;lon;timestamp;temperature;humidity
13798;DHT22;6970;51.340;3.240;2022-10-31T00:02:07;13.80;99.90
13798;DHT22;6970;51.340;3.240;2022-10-31T00:04:38;13.80;99.90
13798;DHT22;6970;51.340;3.240;2022-10-31T00:07:08;13.80;99.90
13798;DHT22;6970;51.340;3.240;2022-10-31T00:09:38;13.80;99.90
13798;DHT22;6970;51.340;3.240;2022-10-31T00:12:06;13.80;99.90
13798;DHT22;6970;51.340;3.240;2022-10-31T00:14:34;13.70;99.90
13798;DHT22;6970;51.340;3.240;2022-10-31T00:17:02;13.70;99.90
13798;DHT22;6970;51.340;3.240;2022-10-31T00:19:29;13.70;99.90
13798;DHT22;6970;51.340;3.240;2022-10-31T00:21:59;13.70;99.90
13798;DHT22;6970;51.340;3.240;2022-10-31T00:24:29;13.60;99.90
13798;DHT22;6970;51.340;3.240;2022-10-31T00:26:59;13.60;99.90
13798;DHT22;6970;51.340;3.240;2022-10-31T00:29:28;13.60;99.90
13798;DHT22;6970;51.340;3.240;2022-10-31T00:31:56;13.50;99.90
13798;DHT22;6970;51.340;3.240;2022-10-31T00:34:29;13.50;99.90
13798;DHT22;6970;51.340;3.240;2022-10-31T00:36:58;13.50;99.90
13798;DHT22;6970;51.340;3.240;2022-10-31T00:39:24;13.50;99.90
13798;DHT22;6970;51.340;3.240;2022-10-31T00:41:54;13.40;99.90
13798;DHT22;6970;51.340;3.240;2022-10-31T00:44:22;13.40;99.90
13798;DHT22;6970;51.340;3.240;2022-10-31T00:46:52;13.40;99.90
13798;DHT22;6970;51.340;3.240;2022-10-31T00:49:22;13.30;99.90
13798;DHT22;6970;51.340;3.240;2022-10-31T00:51:50;13.30;99.90
13798;DHT22;6970;51.340;3.240;2022-10-31T00:54:20;13.30;99.90
13798;DHT22;6970;51.340;3.240;2022-10-31T00:56:47;13.30;99.90
13798;DHT22;6970;51.340;3.240;2022-10-31T00:59:17;13.30;99.90
13798;DHT22;6970;51.340;3.240;2022-10-31T01:01:46;13.30;99.90
13798;DHT22;6970;51.340;3.240;2022-10-31T01:04:14;13.30;99.90
13798;DHT22;6970;51.340;3.240;2022-10-31T01:06:44;13.40;99.90
13798;DHT22;6970;51.340;3.240;2022-10-31T01:09:14;13.40;99.90
13798;DHT22;6970;51.340;3.240;2022-10-31T01:11:45;13.40;99.90
13798;DHT22;6970;51.340;3.240;2022-10-31T01:14:12;13.40;99.90
13798;DHT22;6970;51.340;3.240;2022-10-31T01:16:40;13.40;99.90
13798;DHT22;6970;51.340;3.240;2022-10-31T01:19:09;13.40;99.90
13798;DHT22;6970;51.340;3.240;2022-10-31T01:21:38;13.40;99.90
13798;DHT22;6970;51.340;3.240;2022-10-31T01:24:11;13.40;99.90
13798;DHT22;6970;51.340;3.240;2022-10-31T01:26:41;13.40;99.90
13798;DHT22;6970;51.340;3.240;2022-10-31T01:29:11;13.40;99.90
13798;DHT22;6970;51.340;3.240;2022-10-31T01:31:41;13.40;99.90
13798;DHT22;6970;51.340;3.240;2022-10-31T01:34:14;13.40;99.90
13798;DHT22;6970;51.340;3.240;2022-10-31T01:36:43;13.40;99.90
13798;DHT22;6970;51.340;3.240;2022-10-31T01:39:13;13.30;99.90
13798;DHT22;6970;51.340;3.240;2022-10-31T01:41:48;13.30;99.90
13798;DHT22;6970;51.340;3.240;2022-10-31T01:49:24;13.30;99.90
13798;DHT22;6970;51.340;3.240;2022-10-31T01:52:07;13.30;99.90
13798;DHT22;6970;51.340;3.240;2022-10-31T01:54:42;13.30;99.90
13798;DHT22;6970;51.340;3.240;2022-10-31T01:57:14;13.30;99.90
13798;DHT22;6970;51.340;3.240;2022-10-31T01:59:46;13.30;99.90
13798;DHT22;6970;51.340;3.240;2022-10-31T02:02:18;13.10;99.90
13798;DHT22;6970;51.340;3.240;2022-10-31T02:04:49;13.00;99.90
13798;DHT22;6970;51.340;3.240;2022-10-31T02:07:26;12.90;99.90
13798;DHT22;6970;51.340;3.240;2022-10-31T02:09:57;12.70;99.90
13798;DHT22;6970;51.340;3.240;2022-10-31T02:12:25;12.70;99.90
13798;DHT22;6970;51.340;3.240;2022-10-31T02:14:55;12.60;99.90
13798;DHT22;6970;51.340;3.240;2022-10-31T02:17:23;12.50;99.90
13798;DHT22;6970;51.340;3.240;2022-10-31T02:22:40;12.40;99.90
13798;DHT22;6970;51.340;3.240;2022-10-31T02:25:26;12.30;99.90
13798;DHT22;6970;51.340;3.240;2022-10-31T02:34:04;12.20;99.90
13798;DHT22;6970;51.340;3.240;2022-10-31T02:36:37;12.20;99.90
13798;DHT22;6970;51.340;3.240;2022-10-31T02:39:18;12.20;99.90
13798;DHT22;6970;51.340;3.240;2022-10-31T02:47:33;12.10;99.90
13798;DHT22;6970;51.340;3.240;2022-10-31T02:50:09;12.00;99.90
13798;DHT22;6970;51.340;3.240;2022-10-31T02:52:40;12.10;99.90
13798;DHT22;6970;51.340;3.240;2022-10-31T02:58:15;12.10;99.90
13798;DHT22;6970;51.340;3.240;2022-10-31T03:01:10;12.10;99.90
13798;DHT22;6970;51.340;3.240;2022-10-31T03:12:31;12.30;99.90
13798;DHT22;6970;51.340;3.240;2022-10-31T03:15:21;12.40;99.90
13798;DHT22;6970;51.340;3.240;2022-10-31T03:18:09;12.40;99.90
13798;DHT22;6970;51.340;3.240;2022-10-31T03:21:01;12.40;99.90
13798;DHT22;6970;51.340;3.240;2022-10-31T03:23:36;12.50;99.90
13798;DHT22;6970;51.340;3.240;2022-10-31T03:26:08;12.50;99.90
13798;DHT22;6970;51.340;3.240;2022-10-31T03:28:49;12.60;99.90
13798;DHT22;6970;51.340;3.240;2022-10-31T03:31:19;12.60;99.90
13798;DHT22;6970;51.340;3.240;2022-10-31T03:33:50;12.50;99.90
13798;DHT22;6970;51.340;3.240;2022-10-31T03:36:22;12.40;99.90
13798;DHT22;6970;51.340;3.240;2022-10-31T03:38:51;12.30;99.90
13798;DHT22;6970;51.340;3.240;2022-10-31T03:41:23;12.20;99.90
13798;DHT22;6970;51.340;3.240;2022-10-31T03:43:57;12.20;99.90
13798;DHT22;6970;51.340;3.240;2022-10-31T03:46:28;12.10;99.90
13798;DHT22;6970;51.340;3.240;2022-10-31T03:48:57;12.00;99.90
13798;DHT22;6970;51.340;3.240;2022-10-31T03:51:27;12.00;99.90
13798;DHT22;6970;51.340;3.240;2022-10-31T03:54:11;11.90;99.90
13798;DHT22;6970;51.340;3.240;2022-10-31T03:57:05;11.90;99.90
13798;DHT22;6970;51.340;3.240;2022-10-31T03:59:44;11.80;99.90
13798;DHT22;6970;51.340;3.240;2022-10-31T04:02:16;11.80;99.90
13798;DHT22;6970;51.340;3.240;2022-10-31T04:04:48;11.70;99.90
13798;DHT22;6970;51.340;3.240;2022-10-31T04:07:15;11.70;99.90
13798;DHT22;6970;51.340;3.240;2022-10-31T04:09:47;11.60;99.90
13798;DHT22;6970;51.340;3.240;2022-10-31T04:12:16;11.60;99.90
13798;DHT22;6970;51.340;3.240;2022-10-31T04:14:48;11.60;99.90
13798;DHT22;6970;51.340;3.240;2022-10-31T04:17:21;11.60;99.90
13798;DHT22;6970;51.340;3.240;2022-10-31T04:19:48;11.60;99.90
13798;DHT22;6970;51.340;3.240;2022-10-31T04:22:18;11.50;99.90
13798;DHT22;6970;51.340;3.240;2022-10-31T04:24:48;11.50;99.90
13798;DHT22;6970;51.340;3.240;2022-10-31T04:27:16;11.50;99.90
13798;DHT22;6970;51.340;3.240;2022-10-31T04:29:46;11.50;99.90
13798;DHT22;6970;51.340;3.240;2022-10-31T04:32:19;11.40;99.90
13798;DHT22;6970;51.340;3.240;2022-10-31T04:34:48;11.40;99.90
13798;DHT22;6970;51.340;3.240;2022-10-31T04:37:17;11.40;99.90
13798;DHT22;6970;51.340;3.240;2022-10-31T04:39:47;11.40;99.90
13798;DHT22;6970;51.340;3.240;2022-10-31T04:42:14;11.40;99.90
13798;DHT22;6970;51.340;3.240;2022-10-31T04:44:44;11.40;99.90
13798;DHT22;6970;51.340;3.240;2022-10-31T04:47:12;11.40;99.90
13798;DHT22;6970;51.340;3.240;2022-10-31T04:49:40;11.40;99.90
13798;DHT22;6970;51.340;3.240;2022-10-31T04:52:09;11.40;99.90
13798;DHT22;6970;51.340;3.240;2022-10-31T04:54:39;11.30;99.90
13798;DHT22;6970;51.340;3.240;2022-10-31T04:57:12;11.30;99.90
13798;DHT22;6970;51.340;3.240;2022-10-31T04:59:39;11.30;99.90
13798;DHT22;6970;51.340;3.240;2022-10-31T05:02:06;11.30;99.90
13798;DHT22;6970;51.340;3.240;2022-10-31T05:04:35;11.30;99.90
13798;DHT22;6970;51.340;3.240;2022-10-31T05:07:05;11.30;99.90
13798;DHT22;6970;51.340;3.240;2022-10-31T05:09:35;11.40;99.90
13798;DHT22;6970;51.340;3.240;2022-10-31T05:12:05;11.40;99.90
13798;DHT22;6970;51.340;3.240;2022-10-31T05:14:32;11.40;99.90
13798;DHT22;6970;51.340;3.240;2022-10-31T05:16:59;11.30;99.90
13798;DHT22;6970;51.340;3.240;2022-10-31T05:19:27;11.30;99.90
13798;DHT22;6970;51.340;3.240;2022-10-31T05:21:54;11.30;99.90
13798;DHT22;6970;51.340;3.240;2022-10-31T05:24:24;11.20;99.90
13798;DHT22;6970;51.340;3.240;2022-10-31T05:26:54;11.20;99.90
13798;DHT22;6970;51.340;3.240;2022-10-31T05:29:21;11.20;99.90
13798;DHT22;6970;51.340;3.240;2022-10-31T05:31:51;11.20;99.90
13798;DHT22;6970;51.340;3.240;2022-10-31T05:34:20;11.20;99.90
13798;DHT22;6970;51.340;3.240;2022-10-31T05:36:50;11.20;99.90
13798;DHT22;6970;51.340;3.240;2022-10-31T05:39:18;11.20;99.90
13798;DHT22;6970;51.340;3.240;2022-10-31T05:41:48;11.20;99.90
13798;DHT22;6970;51.340;3.240;2022-10-31T05:44:18;11.20;99.90
13798;DHT22;6970;51.340;3.240;2022-10-31T05:46:48;11.30;99.90
13798;DHT22;6970;51.340;3.240;2022-10-31T05:49:18;11.20;99.90
13798;DHT22;6970;51.340;3.240;2022-10-31T05:51:48;11.20;99.90
13798;DHT22;6970;51.340;3.240;2022-10-31T05:54:16;11.20;99.90
13798;DHT22;6970;51.340;3.240;2022-10-31T05:56:44;11.20;99.90
13798;DHT22;6970;51.340;3.240;2022-10-31T05:59:11;11.10;99.90
13798;DHT22;6970;51.340;3.240;2022-10-31T06:01:40;11.10;99.90
13798;DHT22;6970;51.340;3.240;2022-10-31T06:04:08;11.10;99.90
13798;DHT22;6970;51.340;3.240;2022-10-31T06:06:38;11.10;99.90
13798;DHT22;6970;51.340;3.240;2022-10-31T06:09:07;11.10;99.90
13798;DHT22;6970;51.340;3.240;2022-10-31T06:11:37;11.10;99.90
13798;DHT22;6970;51.340;3.240;2022-10-31T06:14:07;11.10;99.90
13798;DHT22;6970;51.340;3.240;2022-10-31T06:16:37;11.10;99.90
13798;DHT22;6970;51.340;3.240;2022-10-31T06:19:07;11.10;99.90
13798;DHT22;6970;51.340;3.240;2022-10-31T06:21:38;11.10;99.90
13798;DHT22;6970;51.340;3.240;2022-10-31T06:24:11;11.10;99.90
13798;DHT22;6970;51.340;3.240;2022-10-31T06:26:41;11.20;99.90
13798;DHT22;6970;51.340;3.240;2022-10-31T06:29:11;11.10;99.90
13798;DHT22;6970;51.340;3.240;2022-10-31T06:31:39;11.10;99.90
13798;DHT22;6970;51.340;3.240;2022-10-31T06:34:14;11.10;99.90
13798;DHT22;6970;51.340;3.240;2022-10-31T06:36:41;11.10;99.90
13798;DHT22;6970;51.340;3.240;2022-10-31T06:39:10;11.00;99.90
13798;DHT22;6970;51.340;3.240;2022-10-31T06:41:47;11.00;99.90
13798;DHT22;6970;51.340;3.240;2022-10-31T06:44:15;11.00;99.90
13798;DHT22;6970;51.340;3.240;2022-10-31T06:46:43;11.00;99.90
13798;DHT22;6970;51.340;3.240;2022-10-31T06:49:11;11.00;99.90
13798;DHT22;6970;51.340;3.240;2022-10-31T06:51:42;11.10;99.90
13798;DHT22;6970;51.340;3.240;2022-10-31T06:54:12;11.10;99.90
13798;DHT22;6970;51.340;3.240;2022-10-31T06:56:42;11.10;99.90
13798;DHT22;6970;51.340;3.240;2022-10-31T06:59:12;11.10;99.90
13798;DHT22;6970;51.340;3.240;2022-10-31T07:01:40;11.20;99.90
13798;DHT22;6970;51.340;3.240;2022-10-31T07:04:09;11.20;99.90
13798;DHT22;6970;51.340;3.240;2022-10-31T07:06:37;11.20;99.90
13798;DHT22;6970;51.340;3.240;2022-10-31T07:09:06;11.20;99.90
13798;DHT22;6970;51.340;3.240;2022-10-31T07:11:33;11.30;99.90
13798;DHT22;6970;51.340;3.240;2022-10-31T07:14:03;11.30;99.90
13798;DHT22;6970;51.340;3.240;2022-10-31T07:16:32;11.30;99.90
13798;DHT22;6970;51.340;3.240;2022-10-31T07:19:02;11.40;99.90
13798;DHT22;6970;51.340;3.240;2022-10-31T07:21:32;11.40;99.90
13798;DHT22;6970;51.340;3.240;2022-10-31T07:24:00;11.40;99.90
13798;DHT22;6970;51.340;3.240;2022-10-31T07:26:30;11.40;99.90
13798;DHT22;6970;51.340;3.240;2022-10-31T07:29:04;11.40;99.90
13798;DHT22;6970;51.340;3.240;2022-10-31T07:31:34;11.40;99.90
13798;DHT22;6970;51.340;3.240;2022-10-31T07:34:02;11.40;99.90
13798;DHT22;6970;51.340;3.240;2022-10-31T07:36:31;11.50;99.90
13798;DHT22;6970;51.340;3.240;2022-10-31T07:38:59;11.50;99.90
13798;DHT22;6970;51.340;3.240;2022-10-31T07:41:27;11.60;99.90
13798;DHT22;6970;51.340;3.240;2022-10-31T07:43:57;11.60;99.90
13798;DHT22;6970;51.340;3.240;2022-10-31T07:46:24;11.80;99.90
13798;DHT22;6970;51.340;3.240;2022-10-31T07:48:51;12.00;99.90
13798;DHT22;6970;51.340;3.240;2022-10-31T07:51:19;12.30;99.90
13798;DHT22;6970;51.340;3.240;2022-10-31T07:53:46;12.50;99.90
13798;DHT22;6970;51.340;3.240;2022-10-31T07:56:13;12.60;99.90
13798;DHT22;6970;51.340;3.240;2022-10-31T07:58:40;12.70;99.90
13798;DHT22;6970;51.340;3.240;2022-10-31T08:01:07;12.80;99.90
13798;DHT22;6970;51.340;3.240;2022-10-31T08:03:37;13.20;99.90
13798;DHT22;6970;51.340;3.240;2022-10-31T08:06:05;13.80;99.90
13798;DHT22;6970;51.340;3.240;2022-10-31T08:08:44;14.20;99.90
13798;DHT22;6970;51.340;3.240;2022-10-31T08:11:14;14.30;99.90
13798;DHT22;6970;51.340;3.240;2022-10-31T08:13:42;14.30;99.90
13798;DHT22;6970;51.340;3.240;2022-10-31T08:16:09;14.20;99.90
13798;DHT22;6970;51.340;3.240;2022-10-31T08:18:37;14.10;99.90
13798;DHT22;6970;51.340;3.240;2022-10-31T08:21:07;14.00;99.90
13798;DHT22;6970;51.340;3.240;2022-10-31T08:23:36;13.80;99.90
13798;DHT22;6970;51.340;3.240;2022-10-31T08:26:03;13.70;99.90
13798;DHT22;6970;51.340;3.240;2022-10-31T08:28:33;13.60;99.90
13798;DHT22;6970;51.340;3.240;2022-10-31T08:31:01;13.50;99.90
13798;DHT22;6970;51.340;3.240;2022-10-31T08:33:39;13.50;99.90
13798;DHT22;6970;51.340;3.240;2022-10-31T08:36:08;13.50;99.90
13798;DHT22;6970;51.340;3.240;2022-10-31T08:38:36;13.40;99.90
13798;DHT22;6970;51.340;3.240;2022-10-31T08:41:05;13.50;99.90
13798;DHT22;6970;51.340;3.240;2022-10-31T08:43:35;14.30;99.90
13798;DHT22;6970;51.340;3.240;2022-10-31T08:46:05;15.20;99.90
13798;DHT22;6970;51.340;3.240;2022-10-31T08:48:35;16.30;99.90
13798;DHT22;6970;51.340;3.240;2022-10-31T08:51:05;17.30;99.90
13798;DHT22;6970;51.340;3.240;2022-10-31T08:53:35;17.70;99.90
13798;DHT22;6970;51.340;3.240;2022-10-31T08:56:03;18.50;99.90
13798;DHT22;6970;51.340;3.240;2022-10-31T08:58:33;19.60;99.90
13798;DHT22;6970;51.340;3.240;2022-10-31T09:01:06;20.00;99.90
13798;DHT22;6970;51.340;3.240;2022-10-31T09:03:43;20.00;99.90
13798;DHT22;6970;51.340;3.240;2022-10-31T09:06:10;20.00;99.90
13798;DHT22;6970;51.340;3.240;2022-10-31T09:08:40;19.50;99.90
13798;DHT22;6970;51.340;3.240;2022-10-31T09:11:10;18.70;99.90
13798;DHT22;6970;51.340;3.240;2022-10-31T09:13:37;17.90;99.90
13798;DHT22;6970;51.340;3.240;2022-10-31T09:16:07;17.20;99.90
13798;DHT22;6970;51.340;3.240;2022-10-31T09:18:37;16.60;99.90
13798;DHT22;6970;51.340;3.240;2022-10-31T09:21:07;16.00;99.90
13798;DHT22;6970;51.340;3.240;2022-10-31T09:23:36;15.60;99.90
13798;DHT22;6970;51.340;3.240;2022-10-31T09:26:06;15.30;99.90
13798;DHT22;6970;51.340;3.240;2022-10-31T09:28:33;15.10;99.90
13798;DHT22;6970;51.340;3.240;2022-10-31T09:31:00;15.00;99.90
13798;DHT22;6970;51.340;3.240;2022-10-31T09:33:30;14.90;99.90
13798;DHT22;6970;51.340;3.240;2022-10-31T09:35:58;14.80;99.90
13798;DHT22;6970;51.340;3.240;2022-10-31T09:38:25;14.80;99.90
13798;DHT22;6970;51.340;3.240;2022-10-31T09:51:57;15.10;99.90
13798;DHT22;6970;51.340;3.240;2022-10-31T09:57:15;15.60;99.90
13798;DHT22;6970;51.340;3.240;2022-10-31T09:59:44;16.00;99.90
13798;DHT22;6970;51.340;3.240;2022-10-31T10:21:37;15.70;99.90
13798;DHT22;6970;51.340;3.240;2022-10-31T10:24:32;15.60;99.90
13798;DHT22;6970;51.340;3.240;2022-10-31T10:30:04;15.40;99.90
13798;DHT22;6970;51.340;3.240;2022-10-31T10:32:41;15.50;99.90
13798;DHT22;6970;51.340;3.240;2022-10-31T10:37:58;17.30;99.90
13798;DHT22;6970;51.340;3.240;2022-10-31T10:40:28;17.90;99.90
13798;DHT22;6970;51.340;3.240;2022-10-31T10:43:21;18.20;99.90
13798;DHT22;6970;51.340;3.240;2022-10-31T10:49:52;18.30;99.90
13798;DHT22;6970;51.340;3.240;2022-10-31T10:58:02;17.50;99.90
13798;DHT22;6970;51.340;3.240;2022-10-31T11:00:38;17.30;99.90
13798;DHT22;6970;51.340;3.240;2022-10-31T11:03:10;17.00;99.90
13798;DHT22;6970;51.340;3.240;2022-10-31T11:05:42;16.80;99.90
13798;DHT22;6970;51.340;3.240;2022-10-31T11:08:30;16.80;99.90
13798;DHT22;6970;51.340;3.240;2022-10-31T11:11:08;16.70;99.90
13798;DHT22;6970;51.340;3.240;2022-10-31T11:13:41;16.70;99.90
13798;DHT22;6970;51.340;3.240;2022-10-31T11:19:17;17.10;99.90
13798;DHT22;6970;51.340;3.240;2022-10-31T11:21:48;17.70;99.90
13798;DHT22;6970;51.340;3.240;2022-10-31T11:24:24;18.20;99.90
13798;DHT22;6970;51.340;3.240;2022-10-31T11:27:13;18.50;99.90
13798;DHT22;6970;51.340;3.240;2022-10-31T11:29:44;18.40;99.90
13798;DHT22;6970;51.340;3.240;2022-10-31T11:32:37;18.40;99.90
13798;DHT22;6970;51.340;3.240;2022-10-31T11:35:13;18.40;99.90
13798;DHT22;6970;51.340;3.240;2022-10-31T11:37:45;18.50;99.90
13798;DHT22;6970;51.340;3.240;2022-10-31T11:40:25;18.60;99.90
13798;DHT22;6970;51.340;3.240;2022-10-31T11:42:56;18.70;99.90
13798;DHT22;6970;51.340;3.240;2022-10-31T11:45:33;18.70;99.90
13798;DHT22;6970;51.340;3.240;2022-10-31T11:48:17;18.70;99.90
13798;DHT22;6970;51.340;3.240;2022-10-31T11:50:53;18.70;99.90
13798;DHT22;6970;51.340;3.240;2022-10-31T11:53:29;18.90;99.90
13798;DHT22;6970;51.340;3.240;2022-10-31T11:56:13;18.90;99.90
13798;DHT22;6970;51.340;3.240;2022-10-31T11:58:43;18.90;99.90
13798;DHT22;6970;51.340;3.240;2022-10-31T12:01:31;18.70;99.90
13798;DHT22;6970;51.340;3.240;2022-10-31T12:04:10;18.80;99.90
13798;DHT22;6970;51.340;3.240;2022-10-31T12:06:39;19.00;99.90
13798;DHT22;6970;51.340;3.240;2022-10-31T12:09:18;19.20;99.90
13798;DHT22;6970;51.340;3.240;2022-10-31T12:11:55;19.40;99.90
13798;DHT22;6970;51.340;3.240;2022-10-31T12:23:25;19.70;99.90
13798;DHT22;6970;51.340;3.240;2022-10-31T12:34:53;18.40;99.90
13798;DHT22;6970;51.340;3.240;2022-10-31T12:37:33;18.20;99.90
13798;DHT22;6970;51.340;3.240;2022-10-31T12:40:15;18.10;99.90
13798;DHT22;6970;51.340;3.240;2022-10-31T12:45:58;18.00;99.90
13798;DHT22;6970;51.340;3.240;2022-10-31T12:59:57;17.70;99.90
13798;DHT22;6970;51.340;3.240;2022-10-31T13:05:39;17.60;99.90
13798;DHT22;6970;51.340;3.240;2022-10-31T13:08:16;17.50;99.90
13798;DHT22;6970;51.340;3.240;2022-10-31T13:11:08;17.60;99.90
13798;DHT22;6970;51.340;3.240;2022-10-31T13:14:32;17.60;99.90
13798;DHT22;6970;51.340;3.240;2022-10-31T13:16:41;17.60;99.90
13798;DHT22;6970;51.340;3.240;2022-10-31T13:19:35;17.50;99.90
13798;DHT22;6970;51.340;3.240;2022-10-31T13:22:16;17.50;99.90
13798;DHT22;6970;51.340;3.240;2022-10-31T13:25:03;17.40;99.90
13798;DHT22;6970;51.340;3.240;2022-10-31T13:28:03;17.40;99.90
13798;DHT22;6970;51.340;3.240;2022-10-31T13:30:40;17.30;99.90
13798;DHT22;6970;51.340;3.240;2022-10-31T13:33:16;17.30;99.90
13798;DHT22;6970;51.340;3.240;2022-10-31T13:41:44;17.30;99.90
13798;DHT22;6970;51.340;3.240;2022-10-31T13:44:23;17.30;99.90
13798;DHT22;6970;51.340;3.240;2022-10-31T13:46:54;17.30;99.90
13798;DHT22;6970;51.340;3.240;2022-10-31T13:54:44;17.30;99.90
13798;DHT22;6970;51.340;3.240;2022-10-31T14:02:57;17.30;99.90
13798;DHT22;6970;51.340;3.240;2022-10-31T14:05:32;17.30;99.90
13798;DHT22;6970;51.340;3.240;2022-10-31T14:08:03;17.30;99.90
13798;DHT22;6970;51.340;3.240;2022-10-31T14:10:38;17.30;99.90
13798;DHT22;6970;51.340;3.240;2022-10-31T14:13:32;17.30;99.90
13798;DHT22;6970;51.340;3.240;2022-10-31T14:16:05;17.30;99.90
13798;DHT22;6970;51.340;3.240;2022-10-31T14:18:42;17.30;99.90
13798;DHT22;6970;51.340;3.240;2022-10-31T14:21:28;17.30;99.90
13798;DHT22;6970;51.340;3.240;2022-10-31T14:27:49;17.30;99.90
13798;DHT22;6970;51.340;3.240;2022-10-31T14:29:54;17.20;99.90
13798;DHT22;6970;51.340;3.240;2022-10-31T14:32:24;17.20;99.90
13798;DHT22;6970;51.340;3.240;2022-10-31T14:35:09;17.10;99.90
13798;DHT22;6970;51.340;3.240;2022-10-31T14:38:08;17.00;99.90
13798;DHT22;6970;51.340;3.240;2022-10-31T14:47:08;16.90;99.90
13798;DHT22;6970;51.340;3.240;2022-10-31T14:52:32;16.90;99.90
13798;DHT22;6970;51.340;3.240;2022-10-31T14:55:12;16.80;99.90
13798;DHT22;6970;51.340;3.240;2022-10-31T14:57:59;16.70;99.90
13798;DHT22;6970;51.340;3.240;2022-10-31T15:00:33;16.70;99.90
13798;DHT22;6970;51.340;3.240;2022-10-31T15:05:58;16.60;99.90
13798;DHT22;6970;51.340;3.240;2022-10-31T15:08:47;16.60;99.90
13798;DHT22;6970;51.340;3.240;2022-10-31T15:11:25;16.50;99.90
13798;DHT22;6970;51.340;3.240;2022-10-31T15:13:56;16.50;99.90
13798;DHT22;6970;51.340;3.240;2022-10-31T15:16:39;16.50;99.90
13798;DHT22;6970;51.340;3.240;2022-10-31T15:19:18;16.50;99.90
13798;DHT22;6970;51.340;3.240;2022-10-31T15:21:47;16.40;99.90
13798;DHT22;6970;51.340;3.240;2022-10-31T15:24:16;16.40;99.90
13798;DHT22;6970;51.340;3.240;2022-10-31T15:26:52;16.30;99.90
13798;DHT22;6970;51.340;3.240;2022-10-31T15:29:24;16.30;99.90
13798;DHT22;6970;51.340;3.240;2022-10-31T15:31:56;16.30;99.90
13798;DHT22;6970;51.340;3.240;2022-10-31T15:36:50;16.20;99.90
13798;DHT22;6970;51.340;3.240;2022-10-31T15:39:18;16.20;99.90
13798;DHT22;6970;51.340;3.240;2022-10-31T15:41:51;16.20;99.90
13798;DHT22;6970;51.340;3.240;2022-10-31T15:44:30;16.30;99.90
13798;DHT22;6970;51.340;3.240;2022-10-31T15:47:05;16.30;99.90
13798;DHT22;6970;51.340;3.240;2022-10-31T15:49:40;16.20;99.90
13798;DHT22;6970;51.340;3.240;2022-10-31T15:55:04;16.20;99.90
13798;DHT22;6970;51.340;3.240;2022-10-31T15:57:39;16.10;99.90
13798;DHT22;6970;51.340;3.240;2022-10-31T16:03:06;16.10;99.90
13798;DHT22;6970;51.340;3.240;2022-10-31T16:05:51;16.10;99.90
13798;DHT22;6970;51.340;3.240;2022-10-31T16:08:44;16.00;99.90
13798;DHT22;6970;51.340;3.240;2022-10-31T16:16:30;15.90;99.90
13798;DHT22;6970;51.340;3.240;2022-10-31T16:19:11;15.90;99.90
13798;DHT22;6970;51.340;3.240;2022-10-31T16:21:39;15.90;99.90
13798;DHT22;6970;51.340;3.240;2022-10-31T16:24:26;15.80;99.90
13798;DHT22;6970;51.340;3.240;2022-10-31T16:27:03;15.80;99.90
13798;DHT22;6970;51.340;3.240;2022-10-31T16:29:45;15.80;99.90
13798;DHT22;6970;51.340;3.240;2022-10-31T16:32:28;15.80;99.90
13798;DHT22;6970;51.340;3.240;2022-10-31T16:37:39;15.70;99.90
13798;DHT22;6970;51.340;3.240;2022-10-31T16:40:10;15.70;99.90
13798;DHT22;6970;51.340;3.240;2022-10-31T16:42:40;15.60;99.90
13798;DHT22;6970;51.340;3.240;2022-10-31T16:45:21;15.60;99.90
13798;DHT22;6970;51.340;3.240;2022-10-31T16:47:52;15.60;99.90
13798;DHT22;6970;51.340;3.240;2022-10-31T16:50:26;15.60;99.90
13798;DHT22;6970;51.340;3.240;2022-10-31T16:52:56;15.60;99.90
13798;DHT22;6970;51.340;3.240;2022-10-31T16:55:59;15.60;99.90
13798;DHT22;6970;51.340;3.240;2022-10-31T16:58:32;15.60;99.90
13798;DHT22;6970;51.340;3.240;2022-10-31T17:01:01;15.60;99.90
13798;DHT22;6970;51.340;3.240;2022-10-31T17:03:28;15.50;99.90
13798;DHT22;6970;51.340;3.240;2022-10-31T17:06:13;15.50;99.90
13798;DHT22;6970;51.340;3.240;2022-10-31T17:08:41;15.50;99.90
13798;DHT22;6970;51.340;3.240;2022-10-31T17:11:18;15.50;99.90
13798;DHT22;6970;51.340;3.240;2022-10-31T17:13:50;15.50;99.90
13798;DHT22;6970;51.340;3.240;2022-10-31T17:16:24;15.40;99.90
13798;DHT22;6970;51.340;3.240;2022-10-31T17:18:52;15.40;99.90
13798;DHT22;6970;51.340;3.240;2022-10-31T17:21:22;15.40;99.90
13798;DHT22;6970;51.340;3.240;2022-10-31T17:23:51;15.40;99.90
13798;DHT22;6970;51.340;3.240;2022-10-31T17:26:24;15.30;99.90
13798;DHT22;6970;51.340;3.240;2022-10-31T17:28:54;15.30;99.90
13798;DHT22;6970;51.340;3.240;2022-10-31T17:31:27;15.20;99.90
13798;DHT22;6970;51.340;3.240;2022-10-31T17:33:58;15.20;99.90
13798;DHT22;6970;51.340;3.240;2022-10-31T17:36:32;15.20;99.90
13798;DHT22;6970;51.340;3.240;2022-10-31T17:39:03;15.20;99.90
13798;DHT22;6970;51.340;3.240;2022-10-31T17:41:34;15.20;99.90
13798;DHT22;6970;51.340;3.240;2022-10-31T17:44:01;15.20;99.90
13798;DHT22;6970;51.340;3.240;2022-10-31T17:46:29;15.20;99.90
13798;DHT22;6970;51.340;3.240;2022-10-31T17:48:57;15.20;99.90
13798;DHT22;6970;51.340;3.240;2022-10-31T17:51:27;15.10;99.90
13798;DHT22;6970;51.340;3.240;2022-10-31T17:53:57;15.10;99.90
13798;DHT22;6970;51.340;3.240;2022-10-31T17:56:24;15.10;99.90
13798;DHT22;6970;51.340;3.240;2022-10-31T17:58:54;15.10;99.90
13798;DHT22;6970;51.340;3.240;2022-10-31T18:01:23;15.10;99.90
13798;DHT22;6970;51.340;3.240;2022-10-31T18:03:52;15.10;99.90
13798;DHT22;6970;51.340;3.240;2022-10-31T18:06:20;15.10;99.90
13798;DHT22;6970;51.340;3.240;2022-10-31T18:08:48;15.10;99.90
13798;DHT22;6970;51.340;3.240;2022-10-31T18:11:20;15.20;99.90
13798;DHT22;6970;51.340;3.240;2022-10-31T18:13:55;15.20;99.90
13798;DHT22;6970;51.340;3.240;2022-10-31T18:16:23;15.20;99.90
13798;DHT22;6970;51.340;3.240;2022-10-31T18:18:57;15.20;99.90
13798;DHT22;6970;51.340;3.240;2022-10-31T18:21:28;15.20;99.90
13798;DHT22;6970;51.340;3.240;2022-10-31T18:23:58;15.20;99.90
13798;DHT22;6970;51.340;3.240;2022-10-31T18:26:27;15.20;99.90
13798;DHT22;6970;51.340;3.240;2022-10-31T18:28:55;15.20;99.90
13798;DHT22;6970;51.340;3.240;2022-10-31T18:31:24;15.30;99.90
13798;DHT22;6970;51.340;3.240;2022-10-31T18:33:56;15.30;99.90
13798;DHT22;6970;51.340;3.240;2022-10-31T18:36:23;15.30;99.90
13798;DHT22;6970;51.340;3.240;2022-10-31T18:38:54;15.30;99.90
13798;DHT22;6970;51.340;3.240;2022-10-31T18:41:26;15.30;99.90
13798;DHT22;6970;51.340;3.240;2022-10-31T18:44:00;15.30;99.90
13798;DHT22;6970;51.340;3.240;2022-10-31T18:46:28;15.30;99.90
13798;DHT22;6970;51.340;3.240;2022-10-31T18:48:58;15.30;99.90
13798;DHT22;6970;51.340;3.240;2022-10-31T18:51:26;15.30;99.90
13798;DHT22;6970;51.340;3.240;2022-10-31T18:53:56;15.30;99.90
13798;DHT22;6970;51.340;3.240;2022-10-31T18:56:26;15.30;99.90
13798;DHT22;6970;51.340;3.240;2022-10-31T18:58:54;15.30;99.90
13798;DHT22;6970;51.340;3.240;2022-10-31T19:01:27;15.30;99.90
13798;DHT22;6970;51.340;3.240;2022-10-31T19:03:58;15.30;99.90
13798;DHT22;6970;51.340;3.240;2022-10-31T19:06:26;15.40;99.90